createdAt,value
2023-04-07T00:01:12.750Z,3.15
2023-04-07T00:03:41.672Z,3.10
2023-04-07T00:06:11.441Z,3.10
2023-04-07T00:08:39.136Z,3.10
2023-04-07T00:11:06.555Z,3.45
2023-04-07T00:13:33.904Z,3.53
2023-04-07T00:16:01.078Z,3.03
2023-04-07T00:18:28.666Z,3.40
2023-04-07T00:20:55.817Z,3.03
2023-04-07T00:23:23.133Z,4.30
2023-04-07T00:25:50.846Z,3.67
2023-04-07T00:28:18.091Z,3.50
2023-04-07T00:30:45.427Z,3.90
2023-04-07T00:33:37.576Z,3.33
2023-04-07T00:36:05.139Z,3.25
2023-04-07T00:38:32.545Z,3.05
2023-04-07T00:41:00.568Z,2.85
2023-04-07T00:43:28.012Z,3.38
2023-04-07T00:45:56.000Z,3.28
2023-04-07T00:48:23.638Z,3.40
2023-04-07T00:50:50.819Z,3.92
2023-04-07T00:53:18.269Z,3.45
2023-04-07T00:58:43.347Z,2.75
2023-04-07T01:01:21.425Z,2.70
2023-04-07T01:04:08.596Z,3.05
2023-04-07T01:06:40.706Z,2.80
2023-04-07T01:09:21.813Z,2.97
2023-04-07T01:12:24.579Z,3.22
2023-04-07T01:15:09.625Z,3.30
2023-04-07T01:17:53.320Z,2.95
2023-04-07T01:20:24.331Z,3.03
2023-04-07T01:23:02.040Z,2.97
2023-04-07T01:25:44.852Z,3.30
2023-04-07T01:28:44.274Z,3.17
2023-04-07T01:31:15.767Z,3.08
2023-04-07T01:33:46.443Z,3.20
2023-04-07T01:36:14.621Z,3.70
2023-04-07T01:38:43.970Z,2.53
2023-04-07T01:41:12.103Z,2.90
2023-04-07T01:43:41.722Z,2.75
2023-04-07T01:46:09.424Z,2.83
2023-04-07T01:48:39.908Z,3.03
2023-04-07T01:51:08.006Z,2.90
2023-04-07T01:53:39.325Z,2.53
2023-04-07T01:58:36.586Z,2.65
2023-04-07T02:01:06.452Z,2.70
2023-04-07T02:04:11.470Z,2.85
2023-04-07T02:07:06.309Z,2.90
2023-04-07T02:09:41.093Z,3.13
2023-04-07T02:12:12.033Z,2.90
2023-04-07T02:14:44.955Z,2.30
2023-04-07T02:17:16.579Z,2.37
2023-04-07T02:19:46.282Z,3.25
2023-04-07T02:22:15.877Z,3.13
2023-04-07T02:24:43.569Z,3.53
2023-04-07T02:27:10.987Z,2.45
2023-04-07T02:29:38.161Z,2.65
2023-04-07T02:32:07.035Z,2.90
2023-04-07T02:34:34.139Z,2.78
2023-04-07T02:37:01.421Z,2.63
2023-04-07T02:39:28.575Z,3.55
2023-04-07T02:41:56.327Z,3.05
2023-04-07T02:44:23.499Z,3.55
2023-04-07T02:46:51.005Z,4.15
2023-04-07T02:49:18.145Z,3.13
2023-04-07T02:51:47.147Z,3.55
2023-04-07T02:54:14.281Z,2.60
2023-04-07T02:56:44.601Z,2.38
2023-04-07T02:59:11.903Z,2.80
2023-04-07T03:01:42.927Z,2.65
2023-04-07T03:04:11.657Z,3.35
2023-04-07T03:06:38.990Z,3.72
2023-04-07T03:09:11.458Z,2.47
2023-04-07T03:11:40.141Z,2.42
2023-04-07T03:14:08.009Z,2.80
2023-04-07T03:16:42.683Z,3.83
2023-04-07T03:19:13.880Z,2.78
2023-04-07T03:21:44.603Z,2.65
2023-04-07T03:24:12.165Z,2.00
2023-04-07T03:26:39.300Z,3.15
2023-04-07T03:29:13.821Z,3.00
2023-04-07T03:31:42.902Z,2.60
2023-04-07T03:34:12.152Z,3.60
2023-04-07T03:36:39.810Z,2.67
2023-04-07T03:39:07.124Z,2.40
2023-04-07T03:41:34.308Z,3.38
2023-04-07T03:44:01.622Z,2.53
2023-04-07T03:46:39.786Z,3.42
2023-04-07T03:49:08.073Z,2.58
2023-04-07T03:51:35.721Z,2.55
2023-04-07T03:54:07.574Z,2.60
2023-04-07T03:56:39.703Z,2.65
2023-04-07T03:59:07.244Z,3.05
2023-04-07T04:01:39.711Z,3.15
2023-04-07T04:04:12.388Z,3.72
2023-04-07T04:06:43.172Z,2.65
2023-04-07T04:09:45.991Z,2.58
2023-04-07T04:12:13.489Z,2.78
2023-04-07T04:14:49.563Z,3.10
2023-04-07T04:17:18.034Z,2.58
2023-04-07T04:19:47.225Z,2.65
2023-04-07T04:22:35.073Z,2.90
2023-04-07T04:25:02.824Z,2.50
2023-04-07T04:27:34.581Z,2.55
2023-04-07T04:30:12.509Z,3.80
2023-04-07T04:32:46.620Z,2.80
2023-04-07T04:35:14.799Z,3.60
2023-04-07T04:37:52.321Z,2.63
2023-04-07T04:40:19.925Z,2.33
2023-04-07T04:42:49.274Z,2.97
2023-04-07T04:45:17.189Z,3.53
2023-04-07T04:47:47.634Z,2.27
2023-04-07T04:50:14.950Z,2.45
2023-04-07T04:52:44.945Z,2.80
2023-04-07T04:55:32.607Z,2.78
2023-04-07T04:58:01.866Z,2.60
2023-04-07T05:00:39.625Z,2.45
2023-04-07T05:03:11.956Z,4.18
2023-04-07T05:05:42.911Z,3.65
2023-04-07T05:08:11.809Z,2.65
2023-04-07T05:11:05.490Z,2.67
2023-04-07T05:13:34.677Z,2.90
2023-04-07T05:16:04.484Z,4.32
2023-04-07T05:18:31.894Z,3.20
2023-04-07T05:21:02.004Z,3.78
2023-04-07T05:23:30.616Z,3.40
2023-04-07T05:25:58.020Z,4.05
2023-04-07T05:28:25.712Z,2.83
2023-04-07T05:30:55.755Z,3.70
2023-04-07T05:33:28.274Z,5.30
2023-04-07T05:35:58.978Z,4.55
2023-04-07T05:38:26.431Z,5.97
2023-04-07T05:40:58.076Z,5.43
2023-04-07T05:43:30.145Z,6.05
2023-04-07T05:46:00.547Z,4.85
2023-04-07T05:48:29.873Z,4.70
2023-04-07T05:50:57.120Z,6.88
2023-04-07T05:53:24.977Z,3.83
2023-04-07T05:55:52.262Z,5.70
2023-04-07T05:58:26.657Z,4.25
2023-04-07T06:00:56.027Z,3.83
2023-04-07T06:03:23.296Z,4.22
2023-04-07T06:06:00.168Z,4.45
2023-04-07T06:08:27.490Z,5.53
2023-04-07T06:10:56.546Z,5.10
2023-04-07T06:13:24.043Z,4.03
2023-04-07T06:15:51.337Z,4.82
2023-04-07T06:18:20.100Z,4.93
2023-04-07T06:20:47.484Z,6.15
2023-04-07T06:23:19.020Z,6.57
2023-04-07T06:25:46.550Z,6.10
2023-04-07T06:28:14.003Z,5.57
2023-04-07T06:31:01.391Z,5.28
2023-04-07T06:33:28.760Z,5.50
2023-04-07T06:35:59.039Z,5.32
2023-04-07T06:38:27.460Z,5.55
2023-04-07T06:40:54.685Z,5.93
2023-04-07T06:43:22.062Z,6.47
2023-04-07T06:45:55.138Z,5.78
2023-04-07T06:48:24.975Z,7.38
2023-04-07T06:50:56.272Z,5.88
2023-04-07T06:53:23.789Z,5.30
2023-04-07T06:55:51.247Z,4.90
2023-04-07T06:58:18.498Z,5.15
2023-04-07T07:00:45.751Z,5.03
2023-04-07T07:03:13.178Z,5.03
2023-04-07T07:05:40.815Z,4.70
2023-04-07T07:08:09.923Z,4.72
2023-04-07T07:11:03.040Z,4.97
2023-04-07T07:13:30.762Z,4.95
2023-04-07T07:15:58.292Z,4.63
2023-04-07T07:18:25.889Z,4.85
2023-04-07T07:21:05.692Z,5.28
2023-04-07T07:23:34.147Z,5.30
2023-04-07T07:26:07.475Z,5.25
2023-04-07T07:28:44.364Z,5.15
2023-04-07T07:31:24.331Z,5.35
2023-04-07T07:33:52.190Z,5.88
2023-04-07T07:36:42.121Z,5.45
2023-04-07T07:39:11.285Z,5.80
2023-04-07T07:41:38.393Z,5.40
2023-04-07T07:44:06.038Z,5.30
2023-04-07T07:46:33.293Z,5.63
2023-04-07T07:49:00.543Z,5.70
2023-04-07T07:51:28.242Z,5.93
2023-04-07T07:53:55.797Z,5.47
2023-04-07T07:56:34.170Z,5.47
2023-04-07T07:59:02.549Z,4.90
2023-04-07T08:01:33.430Z,4.88
2023-04-07T08:06:52.150Z,4.53
2023-04-07T08:09:20.573Z,5.07
2023-04-07T08:12:41.241Z,5.03
2023-04-07T08:15:10.472Z,4.57
2023-04-07T08:17:38.145Z,4.78
2023-04-07T08:20:06.776Z,4.38
2023-04-07T08:22:34.071Z,4.20
2023-04-07T08:25:31.008Z,4.03
2023-04-07T08:27:58.430Z,3.45
2023-04-07T08:30:26.212Z,4.03
2023-04-07T08:36:10.292Z,3.67
2023-04-07T08:38:37.894Z,3.53
2023-04-07T08:41:10.560Z,3.97
2023-04-07T08:43:39.662Z,3.47
2023-04-07T08:46:09.831Z,3.50
2023-04-07T08:48:38.290Z,3.45
2023-04-07T08:51:08.529Z,2.88
2023-04-07T08:53:45.644Z,3.00
2023-04-07T08:56:13.308Z,3.05
2023-04-07T08:58:41.009Z,2.85
2023-04-07T09:01:09.775Z,3.30
2023-04-07T09:03:38.411Z,2.63
2023-04-07T09:06:05.892Z,2.80
2023-04-07T09:08:33.037Z,2.95
2023-04-07T09:11:00.435Z,2.83
2023-04-07T09:13:27.731Z,2.80
2023-04-07T09:15:56.388Z,2.90
2023-04-07T09:18:24.006Z,2.58
2023-04-07T09:20:59.569Z,2.95
2023-04-07T09:23:31.979Z,3.00
2023-04-07T09:26:18.255Z,2.50
2023-04-07T09:29:05.049Z,2.55
2023-04-07T09:32:43.628Z,2.67
2023-04-07T09:35:11.202Z,2.65
2023-04-07T09:37:38.597Z,2.92
2023-04-07T09:40:06.285Z,2.78
2023-04-07T09:42:36.184Z,2.40
2023-04-07T09:45:03.952Z,3.10
2023-04-07T09:47:33.001Z,2.70
2023-04-07T09:50:06.857Z,2.60
2023-04-07T09:52:52.012Z,2.60
2023-04-07T09:55:22.502Z,2.35
2023-04-07T09:57:55.566Z,2.03
2023-04-07T10:01:02.554Z,2.20
2023-04-07T10:03:30.150Z,2.05
2023-04-07T10:05:57.903Z,2.45
2023-04-07T10:08:25.317Z,2.90
2023-04-07T10:10:52.844Z,2.63
2023-04-07T10:13:21.296Z,2.88
2023-04-07T10:15:49.786Z,3.08
2023-04-07T10:18:20.888Z,3.03
2023-04-07T10:20:51.403Z,2.60
2023-04-07T10:23:25.974Z,2.38
2023-04-07T10:25:56.782Z,2.97
2023-04-07T10:28:32.889Z,2.45
2023-04-07T10:31:01.242Z,3.15
2023-04-07T10:34:07.710Z,2.65
2023-04-07T10:36:38.962Z,3.53
2023-04-07T10:39:26.717Z,3.15
2023-04-07T10:42:01.386Z,3.10
2023-04-07T10:44:46.139Z,2.88
2023-04-07T10:47:14.375Z,2.97
2023-04-07T10:50:20.423Z,2.95
2023-04-07T10:52:49.347Z,3.00
2023-04-07T10:55:29.157Z,2.92
2023-04-07T10:58:31.130Z,3.00
2023-04-07T11:01:04.988Z,3.00
2023-04-07T11:03:35.180Z,2.22
2023-04-07T11:06:06.567Z,2.80
2023-04-07T11:08:40.778Z,2.80
2023-04-07T11:11:21.811Z,2.70
2023-04-07T11:13:51.732Z,3.00
2023-04-07T11:16:34.699Z,2.70
2023-04-07T11:19:02.007Z,2.60
2023-04-07T11:21:30.988Z,2.90
2023-04-07T11:23:58.284Z,3.20
2023-04-07T11:26:25.657Z,2.80
2023-04-07T11:28:54.864Z,2.47
2023-04-07T11:31:31.592Z,2.40
2023-04-07T11:34:02.500Z,2.58
2023-04-07T11:36:40.075Z,2.55
2023-04-07T11:39:20.727Z,2.95
2023-04-07T11:41:49.768Z,2.60
2023-04-07T11:44:19.100Z,2.63
2023-04-07T11:47:05.422Z,3.20
2023-04-07T11:49:33.281Z,3.22
2023-04-07T11:52:09.901Z,2.95
2023-04-07T11:54:47.162Z,2.92
2023-04-07T11:57:24.296Z,3.20
2023-04-07T11:59:51.796Z,2.65
2023-04-07T12:02:43.755Z,2.60
2023-04-07T12:05:12.608Z,2.97
2023-04-07T12:07:42.153Z,2.72
2023-04-07T12:10:28.446Z,2.90
2023-04-07T12:12:58.137Z,2.80
2023-04-07T12:15:26.579Z,2.72
2023-04-07T12:17:55.851Z,3.10
2023-04-07T12:20:23.398Z,3.08
2023-04-07T12:23:14.101Z,3.00
2023-04-07T12:25:44.476Z,2.80
2023-04-07T12:28:11.920Z,2.95
2023-04-07T12:30:39.576Z,2.70
2023-04-07T12:33:07.437Z,2.80
2023-04-07T12:35:35.667Z,3.03
2023-04-07T12:38:05.890Z,3.20
2023-04-07T12:40:34.725Z,2.90
2023-04-07T12:43:02.600Z,2.92
2023-04-07T12:45:31.393Z,2.50
2023-04-07T12:47:59.522Z,2.72
2023-04-07T12:53:09.525Z,3.90
2023-04-07T12:55:37.552Z,4.20
2023-04-07T12:58:04.915Z,4.05
2023-04-07T13:00:32.344Z,4.45
2023-04-07T13:02:59.858Z,3.92
2023-04-07T13:05:55.355Z,4.10
2023-04-07T13:08:22.631Z,4.50
2023-04-07T13:10:50.225Z,4.75
2023-04-07T13:13:17.654Z,4.63
2023-04-07T13:15:45.034Z,4.28
2023-04-07T13:18:12.682Z,4.55
2023-04-07T13:20:40.664Z,5.00
2023-04-07T13:23:10.028Z,5.35
2023-04-07T13:25:38.271Z,4.75
2023-04-07T13:28:09.425Z,5.32
2023-04-07T13:31:01.745Z,4.60
2023-04-07T13:33:29.019Z,4.70
2023-04-07T13:35:56.621Z,4.25
2023-04-07T13:38:24.226Z,4.43
2023-04-07T13:40:51.764Z,5.30
2023-04-07T13:43:19.204Z,4.65
2023-04-07T13:45:47.047Z,5.10
2023-04-07T13:48:22.927Z,4.65
2023-04-07T13:50:50.703Z,4.75
2023-04-07T13:53:19.310Z,5.55
2023-04-07T13:55:56.311Z,5.30
2023-04-07T13:58:23.643Z,5.05
2023-04-07T14:01:09.679Z,4.75
2023-04-07T14:03:37.903Z,5.00
2023-04-07T14:06:05.815Z,5.20
2023-04-07T14:11:19.310Z,4.75
2023-04-07T14:13:47.396Z,5.47
2023-04-07T14:16:18.900Z,5.40
2023-04-07T14:18:47.057Z,4.97
2023-04-07T14:21:22.128Z,5.28
2023-04-07T14:23:49.404Z,5.15
2023-04-07T14:26:17.012Z,5.00
2023-04-07T14:28:44.756Z,4.70
2023-04-07T14:31:16.530Z,4.63
2023-04-07T14:36:15.377Z,5.00
2023-04-07T14:38:58.815Z,4.53
2023-04-07T14:41:26.470Z,4.45
2023-04-07T14:43:57.059Z,5.13
2023-04-07T14:46:25.064Z,4.95
2023-04-07T14:48:52.910Z,4.85
2023-04-07T14:51:45.754Z,4.55
2023-04-07T14:54:13.017Z,5.00
2023-04-07T14:56:44.003Z,4.80
2023-04-07T14:59:14.570Z,4.70
2023-04-07T15:01:42.168Z,4.63
2023-04-07T15:04:13.588Z,4.95
2023-04-07T15:06:46.177Z,5.03
2023-04-07T15:09:15.026Z,4.72
2023-04-07T15:11:42.507Z,5.10
2023-04-07T15:14:09.784Z,5.53
2023-04-07T15:16:37.392Z,4.80
2023-04-07T15:19:04.898Z,4.88
2023-04-07T15:21:32.708Z,4.40
2023-04-07T15:24:00.446Z,5.53
2023-04-07T15:26:52.791Z,5.88
2023-04-07T15:29:20.465Z,6.05
2023-04-07T15:31:47.810Z,6.30
2023-04-07T15:34:15.393Z,6.57
2023-04-07T15:36:43.172Z,6.43
2023-04-07T15:39:10.776Z,6.85
2023-04-07T15:42:03.649Z,6.82
2023-04-07T15:44:39.483Z,6.78
2023-04-07T15:47:07.448Z,7.07
2023-04-07T15:49:37.328Z,6.95
2023-04-07T15:52:05.788Z,7.57
2023-04-07T15:54:33.342Z,7.57
2023-04-07T15:57:13.526Z,7.15
2023-04-07T15:59:41.055Z,7.22
2023-04-07T16:02:33.871Z,7.07
2023-04-07T16:05:10.744Z,6.70
2023-04-07T16:07:44.100Z,6.78
2023-04-07T16:10:16.791Z,7.30
2023-04-07T16:12:45.203Z,7.30
2023-04-07T16:15:13.315Z,6.60
2023-04-07T16:17:43.524Z,7.32
2023-04-07T16:20:15.008Z,7.80
2023-04-07T16:22:48.020Z,7.22
2023-04-07T16:25:28.046Z,8.07
2023-04-07T16:27:55.606Z,7.18
2023-04-07T16:30:24.080Z,6.95
2023-04-07T16:32:51.736Z,7.57
2023-04-07T16:35:19.150Z,7.82
2023-04-07T16:37:46.823Z,7.43
2023-04-07T16:40:14.660Z,7.88
2023-04-07T16:43:33.595Z,8.48
2023-04-07T16:46:01.186Z,8.38
2023-04-07T16:48:29.342Z,8.15
2023-04-07T16:51:28.682Z,8.15
2023-04-07T16:53:56.249Z,8.13
2023-04-07T16:56:25.372Z,8.60
2023-04-07T16:58:52.714Z,9.13
2023-04-07T17:01:20.169Z,9.32
2023-04-07T17:03:51.701Z,8.68
2023-04-07T17:06:34.894Z,9.10
2023-04-07T17:09:02.303Z,9.13
2023-04-07T17:11:29.878Z,8.90
2023-04-07T17:14:09.760Z,8.57
2023-04-07T17:16:37.090Z,9.85
2023-04-07T17:19:04.540Z,8.77
2023-04-07T17:21:32.173Z,8.80
2023-04-07T17:23:59.566Z,9.00
2023-04-07T17:26:27.371Z,10.07
2023-04-07T17:28:54.925Z,10.60
2023-04-07T17:31:28.369Z,9.85
2023-04-07T17:34:21.930Z,9.52
2023-04-07T17:36:49.486Z,10.07
2023-04-07T17:39:17.236Z,9.52
2023-04-07T17:41:50.963Z,9.98
2023-04-07T17:44:18.360Z,9.48
2023-04-07T17:46:46.222Z,10.45
2023-04-07T17:49:13.866Z,10.02
2023-04-07T17:51:43.316Z,9.98
2023-04-07T17:54:10.780Z,10.20
2023-04-07T17:59:19.559Z,10.05
2023-04-07T18:01:47.117Z,9.50
2023-04-07T18:04:15.441Z,9.68
2023-04-07T18:06:46.270Z,10.60
2023-04-07T18:09:13.914Z,11.45
2023-04-07T18:11:41.635Z,10.90
2023-04-07T18:14:09.075Z,10.02
2023-04-07T18:16:36.669Z,9.32
2023-04-07T18:19:04.487Z,9.57
2023-04-07T18:21:31.766Z,10.50
2023-04-07T18:23:59.397Z,9.80
2023-04-07T18:26:27.485Z,10.82
2023-04-07T18:28:54.858Z,10.60
2023-04-07T18:31:22.623Z,10.00
2023-04-07T18:34:15.107Z,10.25
2023-04-07T18:36:55.564Z,9.65
2023-04-07T18:39:23.245Z,9.50
2023-04-07T18:41:51.873Z,10.25
2023-04-07T18:44:31.437Z,10.07
2023-04-07T18:46:59.164Z,9.63
2023-04-07T18:49:28.434Z,9.95
2023-04-07T18:51:56.163Z,10.93
2023-04-07T18:54:24.518Z,9.68
2023-04-07T18:56:52.151Z,9.93
2023-04-07T18:59:19.589Z,9.75
2023-04-07T19:01:52.128Z,10.07
2023-04-07T19:04:31.518Z,9.85
2023-04-07T19:07:02.229Z,10.40
2023-04-07T19:09:32.060Z,9.18
2023-04-07T19:11:59.586Z,9.63
2023-04-07T19:14:30.106Z,9.27
2023-04-07T19:16:57.432Z,10.00
2023-04-07T19:19:24.786Z,9.52
2023-04-07T19:21:52.194Z,9.75
2023-04-07T19:24:19.879Z,8.98
2023-04-07T19:26:57.190Z,9.57
2023-04-07T19:29:24.452Z,8.68
2023-04-07T19:31:53.427Z,10.02
2023-04-07T19:34:20.736Z,10.13
2023-04-07T19:36:48.366Z,9.95
2023-04-07T19:39:16.571Z,9.57
2023-04-07T19:41:50.034Z,9.50
2023-04-07T19:44:18.480Z,9.20
2023-04-07T19:46:45.845Z,9.55
2023-04-07T19:49:13.900Z,9.20
2023-04-07T19:52:07.679Z,9.43
2023-04-07T19:54:35.100Z,10.15
2023-04-07T19:57:03.147Z,9.35
2023-04-07T20:02:12.117Z,8.75
2023-04-07T20:04:42.969Z,9.32
2023-04-07T20:07:10.579Z,10.23
2023-04-07T20:09:38.048Z,9.60
2023-04-07T20:12:05.946Z,8.95
2023-04-07T20:14:33.246Z,8.80
2023-04-07T20:17:01.917Z,8.57
2023-04-07T20:19:29.734Z,9.27
2023-04-07T20:21:57.468Z,8.77
2023-04-07T20:24:25.052Z,9.15
2023-04-07T20:26:52.750Z,9.00
2023-04-07T20:29:21.755Z,9.60
2023-04-07T20:31:49.741Z,9.63
2023-04-07T20:34:18.233Z,9.27
2023-04-07T20:36:48.890Z,8.60
2023-04-07T20:39:16.742Z,8.90
2023-04-07T20:41:45.315Z,9.57
2023-04-07T20:44:14.198Z,8.80
2023-04-07T20:46:42.494Z,9.60
2023-04-07T20:49:11.023Z,8.40
2023-04-07T20:51:38.510Z,9.43
2023-04-07T20:54:06.155Z,9.23
2023-04-07T20:56:33.714Z,8.52
2023-04-07T20:59:01.468Z,9.57
2023-04-07T21:01:32.818Z,9.65
2023-04-07T21:06:30.012Z,8.63
2023-04-07T21:08:57.681Z,8.25
2023-04-07T21:11:25.208Z,8.88
2023-04-07T21:13:54.976Z,8.50
2023-04-07T21:16:22.979Z,9.13
2023-04-07T21:18:53.445Z,8.15
2023-04-07T21:21:20.878Z,8.20
2023-04-07T21:23:48.239Z,9.27
2023-04-07T21:26:16.232Z,8.18
2023-04-07T21:29:09.188Z,8.93
2023-04-07T21:31:36.921Z,8.82
2023-04-07T21:34:04.425Z,9.32
2023-04-07T21:36:32.971Z,8.13
2023-04-07T21:39:25.557Z,8.60
2023-04-07T21:41:53.105Z,9.00
2023-04-07T21:44:21.558Z,8.50
2023-04-07T21:46:49.369Z,8.30
2023-04-07T21:49:22.318Z,8.32
2023-04-07T21:51:50.171Z,8.63
2023-04-07T21:54:17.517Z,8.38
2023-04-07T21:56:49.206Z,7.82
2023-04-07T21:59:17.894Z,7.45
2023-04-07T22:01:47.287Z,9.00
2023-04-07T22:04:15.024Z,7.95
2023-04-07T22:06:42.876Z,7.82
2023-04-07T22:09:13.488Z,8.18
2023-04-07T22:11:41.082Z,8.45
2023-04-07T22:14:08.370Z,7.85
2023-04-07T22:16:35.984Z,7.97
2023-04-07T22:19:03.942Z,8.10
2023-04-07T22:21:34.088Z,7.95
2023-04-07T22:24:01.338Z,8.05
2023-04-07T22:26:32.086Z,8.07
2023-04-07T22:29:04.926Z,7.90
2023-04-07T22:31:32.872Z,8.05
2023-04-07T22:34:00.491Z,8.07
2023-04-07T22:36:28.183Z,8.23
2023-04-07T22:38:59.122Z,7.85
2023-04-07T22:41:27.750Z,7.63
2023-04-07T22:43:55.453Z,7.68
2023-04-07T22:46:22.668Z,8.32
2023-04-07T22:48:50.326Z,8.95
2023-04-07T22:51:18.313Z,8.45
2023-04-07T22:53:46.032Z,8.90
2023-04-07T22:56:13.680Z,8.50
2023-04-07T22:58:41.163Z,8.05
2023-04-07T23:01:08.657Z,8.60
2023-04-07T23:03:36.431Z,8.10
2023-04-07T23:06:04.147Z,9.32
2023-04-07T23:08:31.692Z,8.32
2023-04-07T23:10:58.986Z,7.65
2023-04-07T23:17:52.059Z,7.95
2023-04-07T23:20:19.536Z,8.70
2023-04-07T23:22:46.745Z,8.45
2023-04-07T23:25:23.614Z,7.45
2023-04-07T23:27:51.272Z,8.00
2023-04-07T23:30:18.805Z,7.85
2023-04-07T23:32:46.410Z,7.78
2023-04-07T23:35:13.931Z,8.02
2023-04-07T23:37:42.443Z,7.50
2023-04-07T23:40:10.645Z,7.60
2023-04-07T23:42:38.170Z,8.07
2023-04-07T23:45:06.212Z,7.28
2023-04-07T23:47:33.447Z,6.88
2023-04-07T23:50:01.127Z,8.02
2023-04-07T23:52:28.526Z,7.78
2023-04-07T23:54:56.065Z,8.40
2023-04-07T23:57:23.741Z,7.90
2023-04-07T23:59:51.191Z,8.30
